Time;durP1;ratioP1;P1;durP2;ratioP2;P2;SDS_P1;SDS_P2;PMS_P1;PMS_P2;Temp;Humidity;BMP_temperature;BMP_pressure;BME280_temperature;BME280_humidity;BME280_pressure;Samples;Min_cycle;Max_cycle;Signal;HPM_P1;HPM_P2
2022/05/09 15:01:52;;;;;;;4.68;3.40;;;;;;;;;;5132562;27;20439;-86
2022/05/09 15:04:20;;;;;;;6.05;4.18;;;;;;;;;;5113661;28;20556;-87
2022/05/09 15:06:47;;;;;;;6.20;3.60;;;;;;;;;;5125188;28;20750;-86
2022/05/09 15:09:14;;;;;;;7.80;3.50;;;;;;;;;;5121735;28;20458;-87
2022/05/09 15:11:42;;;;;;;3.92;2.85;;;;;;;;;;5122891;28;20062;-87
2022/05/09 15:14:15;;;;;;;3.55;2.75;;;;;;;;;;5120683;28;20043;-87
2022/05/09 15:16:45;;;;;;;4.88;3.10;;;;;;;;;;5122807;28;20420;-86
2022/05/09 15:19:14;;;;;;;4.38;2.70;;;;;;;;;;5110953;28;20047;-87
2022/05/09 15:21:41;;;;;;;3.53;2.75;;;;;;;;;;5104770;28;20044;-86
2022/05/09 15:24:07;;;;;;;3.55;2.72;;;;;;;;;;5105151;28;20056;-87
2022/05/09 15:26:37;;;;;;;4.50;2.92;;;;;;;;;;5103226;28;20052;-87
2022/05/09 15:29:06;;;;;;;3.55;2.60;;;;;;;;;;5102785;28;20142;-87
2022/05/09 15:31:33;;;;;;;4.63;3.15;;;;;;;;;;5104937;28;20044;-87
2022/05/09 15:33:59;;;;;;;3.80;2.75;;;;;;;;;;5096601;28;20168;-87
2022/05/09 15:36:29;;;;;;;5.38;2.90;;;;;;;;;;5096866;28;20488;-87
2022/05/09 15:38:55;;;;;;;3.17;2.55;;;;;;;;;;5097928;28;20094;-87
2022/05/09 15:41:25;;;;;;;3.67;1.98;;;;;;;;;;5095854;28;20047;-87
2022/05/09 15:43:54;;;;;;;4.00;2.70;;;;;;;;;;5096024;28;20115;-87
2022/05/09 15:46:25;;;;;;;3.67;2.50;;;;;;;;;;5097780;28;20056;-87
2022/05/09 15:48:51;;;;;;;3.92;2.72;;;;;;;;;;5096058;28;20048;-87
2022/05/09 15:51:18;;;;;;;4.35;3.08;;;;;;;;;;5095639;28;20056;-86
2022/05/09 15:53:46;;;;;;;4.28;2.80;;;;;;;;;;5097526;28;20040;-86
2022/05/09 15:56:13;;;;;;;5.55;2.80;;;;;;;;;;5093731;28;20044;-86
2022/05/09 15:58:42;;;;;;;4.07;2.55;;;;;;;;;;5095226;28;20553;-86
2022/05/09 16:01:09;;;;;;;4.65;2.75;;;;;;;;;;5097294;28;20100;-86
2022/05/09 16:03:37;;;;;;;6.70;2.90;;;;;;;;;;5098537;28;20101;-86
2022/05/09 16:11:33;;;;;;;;;;;;;;;;;;5088738;28;20137;-86
2022/05/09 16:14:02;;;;;;;3.67;2.50;;;;;;;;;;5082406;28;19920;-86
2022/05/09 16:16:30;;;;;;;4.85;2.58;;;;;;;;;;5080797;28;20097;-86
2022/05/09 16:18:58;;;;;;;4.10;2.80;;;;;;;;;;5084371;28;20044;-86
2022/05/09 16:21:25;;;;;;;3.95;2.65;;;;;;;;;;5080612;28;20041;-87
2022/05/09 16:23:54;;;;;;;4.88;2.90;;;;;;;;;;5080029;28;20048;-86
2022/05/09 16:26:21;;;;;;;3.88;3.30;;;;;;;;;;5080584;28;20529;-86
2022/05/09 16:28:48;;;;;;;4.63;2.80;;;;;;;;;;5083873;28;20044;-87
2022/05/09 16:31:20;;;;;;;6.10;2.47;;;;;;;;;;5080776;28;20466;-87
2022/05/09 16:33:47;;;;;;;4.03;2.72;;;;;;;;;;5083584;28;20040;-87
2022/05/09 16:36:14;;;;;;;3.25;2.60;;;;;;;;;;5085197;28;20056;-86
2022/05/09 16:38:40;;;;;;;3.47;2.88;;;;;;;;;;5087693;28;20101;-88
2022/05/09 16:41:12;;;;;;;4.85;2.78;;;;;;;;;;5087809;28;20071;-86
2022/05/09 16:43:39;;;;;;;5.40;2.85;;;;;;;;;;5087876;28;20127;-87
2022/05/09 16:46:07;;;;;;;3.75;2.60;;;;;;;;;;5083560;28;20048;-87
2022/05/09 16:48:34;;;;;;;5.00;2.88;;;;;;;;;;5077132;28;20142;-87
2022/05/09 16:51:03;;;;;;;4.55;2.67;;;;;;;;;;5086820;28;20493;-87
2022/05/09 16:53:30;;;;;;;3.35;3.05;;;;;;;;;;5089918;28;20070;-87
2022/05/09 16:55:56;;;;;;;3.83;2.80;;;;;;;;;;5084802;28;20097;-87
2022/05/09 16:58:25;;;;;;;3.60;2.55;;;;;;;;;;5088467;28;20051;-88
2022/05/09 17:00:52;;;;;;;3.22;2.70;;;;;;;;;;5083327;28;20097;-87
2022/05/09 17:03:19;;;;;;;4.50;3.95;;;;;;;;;;5087336;28;20080;-87
2022/05/09 17:05:46;;;;;;;6.07;3.47;;;;;;;;;;5087206;28;20097;-88
2022/05/09 17:08:13;;;;;;;4.45;3.08;;;;;;;;;;5088825;28;20105;-86
2022/05/09 17:10:40;;;;;;;4.40;3.63;;;;;;;;;;5087489;28;20046;-87
2022/05/09 17:13:07;;;;;;;4.50;2.72;;;;;;;;;;5087840;28;20048;-87
2022/05/09 17:15:41;;;;;;;9.80;4.55;;;;;;;;;;5085439;28;20109;-87
2022/05/09 17:18:08;;;;;;;3.97;2.78;;;;;;;;;;5075391;28;20083;-87
2022/05/09 17:20:37;;;;;;;4.25;3.25;;;;;;;;;;5089067;28;20793;-87
2022/05/09 17:23:05;;;;;;;4.88;3.00;;;;;;;;;;5083868;28;20044;-87
2022/05/09 17:25:36;;;;;;;4.50;3.13;;;;;;;;;;5088583;28;20059;-87
2022/05/09 17:28:04;;;;;;;4.97;3.28;;;;;;;;;;5087525;28;20058;-88
2022/05/09 17:30:32;;;;;;;3.78;3.10;;;;;;;;;;5083225;28;20052;-88
2022/05/09 17:33:00;;;;;;;5.32;3.22;;;;;;;;;;5076064;28;20132;-87
2022/05/09 17:38:12;;;;;;;3.83;2.97;;;;;;;;;;5080026;28;20060;-87
2022/05/09 17:40:44;;;;;;;4.55;3.45;;;;;;;;;;5082520;28;20052;-88
2022/05/09 17:43:11;;;;;;;5.50;3.50;;;;;;;;;;5078898;28;20593;-88
2022/05/09 17:45:39;;;;;;;4.30;3.40;;;;;;;;;;5080855;28;20051;-88
2022/05/09 17:48:09;;;;;;;5.75;3.50;;;;;;;;;;5063445;28;20039;-88
2022/05/09 17:50:36;;;;;;;4.50;3.67;;;;;;;;;;5080276;28;20128;-88
2022/05/09 17:53:02;;;;;;;5.13;3.35;;;;;;;;;;5082453;28;20060;-88
2022/05/09 17:55:30;;;;;;;15.10;5.32;;;;;;;;;;5086747;28;20048;-86
2022/05/09 17:57:59;;;;;;;6.70;3.90;;;;;;;;;;5087466;28;20051;-87
2022/05/09 18:00:26;;;;;;;5.03;3.70;;;;;;;;;;5086353;28;20112;-88
2022/05/09 18:02:54;;;;;;;7.47;4.18;;;;;;;;;;5088531;28;20044;-88
2022/05/09 18:05:22;;;;;;;5.00;3.83;;;;;;;;;;5086512;28;20469;-88
2022/05/09 18:07:49;;;;;;;5.65;3.67;;;;;;;;;;5085621;28;20543;-88
2022/05/09 18:10:16;;;;;;;5.20;3.90;;;;;;;;;;5085673;28;20117;-88
2022/05/09 18:12:46;;;;;;;6.05;3.78;;;;;;;;;;5080480;28;20047;-87
2022/05/09 18:15:14;;;;;;;8.18;3.85;;;;;;;;;;5084315;28;20031;-87
2022/05/09 18:17:46;;;;;;;6.28;3.83;;;;;;;;;;5084523;28;20048;-87
2022/05/09 18:20:18;;;;;;;5.72;3.88;;;;;;;;;;5083369;28;20124;-87
2022/05/09 18:22:51;;;;;;;5.10;3.88;;;;;;;;;;5087704;28;20070;-88
2022/05/09 18:25:21;;;;;;;7.28;4.50;;;;;;;;;;5087052;28;20059;-88
2022/05/09 18:27:48;;;;;;;5.53;4.28;;;;;;;;;;5080304;28;20103;-88
2022/05/09 18:30:17;;;;;;;6.35;4.18;;;;;;;;;;5086339;28;20085;-88
2022/05/09 18:32:50;;;;;;;8.43;6.28;;;;;;;;;;5087029;28;20058;-88
2022/05/09 18:35:17;;;;;;;7.32;5.30;;;;;;;;;;5087094;28;20047;-88
2022/05/09 18:37:48;;;;;;;8.32;4.95;;;;;;;;;;5083102;28;20040;-88
2022/05/09 18:40:16;;;;;;;7.93;5.07;;;;;;;;;;5086849;28;20663;-88
2022/05/09 18:42:43;;;;;;;6.32;4.75;;;;;;;;;;5081508;28;20148;-87
2022/05/09 18:45:11;;;;;;;6.03;4.72;;;;;;;;;;5085755;28;20044;-88
2022/05/09 18:47:41;;;;;;;5.90;4.57;;;;;;;;;;5080220;28;20052;-88
2022/05/09 18:52:57;;;;;;;6.00;4.70;;;;;;;;;;5083532;28;20424;-88
2022/05/09 18:55:27;;;;;;;8.60;4.82;;;;;;;;;;5083222;28;20093;-87
2022/05/09 18:57:56;;;;;;;5.93;4.72;;;;;;;;;;5086730;28;20497;-88
2022/05/09 19:00:25;;;;;;;7.70;5.93;;;;;;;;;;5086907;28;21741;-88
2022/05/09 19:02:52;;;;;;;7.90;5.32;;;;;;;;;;5088208;28;20105;-88
2022/05/09 19:05:20;;;;;;;6.45;4.95;;;;;;;;;;5087580;28;20137;-88
2022/05/09 19:07:50;;;;;;;6.25;4.68;;;;;;;;;;5088192;28;20151;-87
2022/05/09 19:10:26;;;;;;;6.25;5.22;;;;;;;;;;5088277;28;20056;-88
2022/05/09 19:12:53;;;;;;;6.03;4.88;;;;;;;;;;5075835;28;20047;-88
2022/05/09 19:15:20;;;;;;;8.48;5.47;;;;;;;;;;5080487;28;20036;-88
2022/05/09 19:17:47;;;;;;;7.13;5.68;;;;;;;;;;5087601;28;20474;-87
2022/05/09 19:20:15;;;;;;;8.35;5.82;;;;;;;;;;5083527;28;20052;-88
2022/05/09 19:22:42;;;;;;;6.38;5.22;;;;;;;;;;5084757;28;20067;-88
2022/05/09 19:25:10;;;;;;;6.50;5.25;;;;;;;;;;5086872;28;20056;-88
2022/05/09 19:27:40;;;;;;;8.85;5.43;;;;;;;;;;5087036;28;20055;-88
2022/05/09 19:30:10;;;;;;;5.72;5.10;;;;;;;;;;5073520;28;20844;-88
2022/05/09 19:32:40;;;;;;;6.63;5.18;;;;;;;;;;5087552;28;20052;-88
2022/05/09 19:35:08;;;;;;;7.43;5.05;;;;;;;;;;5086656;28;20055;-88
2022/05/09 19:37:35;;;;;;;6.82;5.75;;;;;;;;;;5087603;28;20469;-88
2022/05/09 19:40:02;;;;;;;9.45;4.82;;;;;;;;;;5079564;28;20097;-88
2022/05/09 19:42:31;;;;;;;6.32;5.00;;;;;;;;;;5084396;28;20055;-88
2022/05/09 19:45:00;;;;;;;8.60;5.07;;;;;;;;;;5087263;28;20496;-88
2022/05/09 19:47:29;;;;;;;7.03;5.00;;;;;;;;;;5088720;28;20044;-88
2022/05/09 19:49:58;;;;;;;6.93;5.03;;;;;;;;;;5089845;28;20458;-87
2022/05/09 19:55:14;;;;;;;9.20;5.13;;;;;;;;;;5083637;28;20047;-87
2022/05/09 19:57:41;;;;;;;7.70;5.43;;;;;;;;;;5092937;28;20143;-88
2022/05/09 20:00:12;;;;;;;8.80;5.72;;;;;;;;;;5090569;28;20067;-88
2022/05/09 20:02:40;;;;;;;8.57;5.45;;;;;;;;;;5089687;28;20599;-86
2022/05/09 20:05:08;;;;;;;7.43;5.72;;;;;;;;;;5078528;28;20048;-88
2022/05/09 20:07:36;;;;;;;6.93;5.30;;;;;;;;;;5092025;28;20056;-88
2022/05/09 20:10:03;;;;;;;8.32;5.60;;;;;;;;;;5089660;28;20051;-87
2022/05/09 20:12:33;;;;;;;8.20;5.43;;;;;;;;;;5087106;28;20043;-88
2022/05/09 20:15:00;;;;;;;7.25;5.45;;;;;;;;;;5090823;28;20052;-88
2022/05/09 20:17:30;;;;;;;6.22;5.07;;;;;;;;;;5091205;28;20065;-87
2022/05/09 20:19:57;;;;;;;7.95;5.38;;;;;;;;;;5090874;28;20137;-87
2022/05/09 20:22:30;;;;;;;8.15;5.88;;;;;;;;;;5090336;28;20052;-87
2022/05/09 20:24:59;;;;;;;6.78;5.50;;;;;;;;;;5083286;28;20076;-87
2022/05/09 20:30:11;;;;;;;8.40;5.57;;;;;;;;;;5087050;28;20676;-89
2022/05/09 20:32:40;;;;;;;6.57;5.30;;;;;;;;;;5090257;28;20449;-89
2022/05/09 20:35:12;;;;;;;8.57;5.97;;;;;;;;;;5090008;28;20101;-88
2022/05/09 20:37:44;;;;;;;8.52;6.28;;;;;;;;;;5090185;28;20059;-88
2022/05/09 20:40:15;;;;;;;9.30;6.57;;;;;;;;;;5090074;28;20066;-88
2022/05/09 20:42:43;;;;;;;10.23;6.93;;;;;;;;;;5087109;28;20048;-88
2022/05/09 20:45:11;;;;;;;8.63;6.43;;;;;;;;;;5085031;28;20342;-88
2022/05/09 20:47:40;;;;;;;8.43;5.90;;;;;;;;;;5089603;28;20052;-88
2022/05/09 20:50:09;;;;;;;9.77;5.78;;;;;;;;;;5085310;28;20047;-88
2022/05/09 20:52:38;;;;;;;7.97;6.78;;;;;;;;;;5084650;28;20048;-88
2022/05/09 20:55:08;;;;;;;8.88;6.55;;;;;;;;;;5063772;28;20134;-88
2022/05/09 20:57:35;;;;;;;9.68;6.28;;;;;;;;;;5080774;28;20139;-88
2022/05/09 21:00:02;;;;;;;7.07;5.57;;;;;;;;;;5080295;28;20121;-89
2022/05/09 21:02:29;;;;;;;8.02;5.65;;;;;;;;;;5079401;28;20082;-88
2022/05/09 21:04:58;;;;;;;8.70;5.90;;;;;;;;;;5077368;28;20044;-89
2022/05/09 21:07:25;;;;;;;9.93;6.20;;;;;;;;;;5079090;28;20151;-89
2022/05/09 21:09:51;;;;;;;7.97;5.82;;;;;;;;;;5079424;28;20048;-89
2022/05/09 21:12:20;;;;;;;7.55;5.70;;;;;;;;;;5081204;28;20044;-89
2022/05/09 21:14:47;;;;;;;10.70;7.10;;;;;;;;;;5080634;28;20079;-88
2022/05/09 21:17:15;;;;;;;10.02;6.38;;;;;;;;;;5082571;28;20112;-88
2022/05/09 21:19:41;;;;;;;8.50;5.93;;;;;;;;;;5086802;28;20044;-88
2022/05/09 21:22:15;;;;;;;12.30;6.82;;;;;;;;;;5084169;28;20800;-88
2022/05/09 21:24:41;;;;;;;9.70;5.85;;;;;;;;;;5073801;28;20129;-89
2022/05/09 21:27:08;;;;;;;8.82;6.30;;;;;;;;;;5076840;28;20125;-89
2022/05/09 21:29:37;;;;;;;10.38;5.93;;;;;;;;;;5083757;28;20520;-89
2022/05/09 21:32:04;;;;;;;9.02;6.47;;;;;;;;;;5084824;28;20081;-89
2022/05/09 21:34:31;;;;;;;8.20;6.20;;;;;;;;;;5079602;28;20128;-89
2022/05/09 21:36:58;;;;;;;9.38;6.55;;;;;;;;;;5078323;28;20065;-89
2022/05/09 21:42:10;;;;;;;8.80;6.80;;;;;;;;;;5081645;28;20046;-89
2022/05/09 21:44:41;;;;;;;8.30;5.90;;;;;;;;;;5085046;28;20071;-89
2022/05/09 21:47:08;;;;;;;9.10;6.43;;;;;;;;;;5083835;28;20058;-88
2022/05/09 21:49:35;;;;;;;8.98;6.78;;;;;;;;;;5071465;28;20048;-89
2022/05/09 21:52:03;;;;;;;7.70;5.68;;;;;;;;;;5087828;28;20537;-88
2022/05/09 21:54:34;;;;;;;7.75;5.90;;;;;;;;;;5079712;28;20135;-88
2022/05/09 21:57:01;;;;;;;8.10;6.85;;;;;;;;;;5083356;28;20052;-88
2022/05/09 21:59:30;;;;;;;8.98;6.00;;;;;;;;;;5086148;28;20055;-89
2022/05/09 22:01:57;;;;;;;8.73;6.20;;;;;;;;;;5085830;28;20044;-89
2022/05/09 22:04:24;;;;;;;8.90;6.07;;;;;;;;;;5085748;28;20109;-88
2022/05/09 22:06:52;;;;;;;7.65;6.20;;;;;;;;;;5086036;28;20485;-89
2022/05/09 22:09:21;;;;;;;10.40;7.38;;;;;;;;;;5086370;28;20044;-89
2022/05/09 22:11:49;;;;;;;9.88;7.63;;;;;;;;;;5085282;28;20040;-89
2022/05/09 22:14:18;;;;;;;8.43;6.55;;;;;;;;;;5087163;28;20069;-89
2022/05/09 22:16:46;;;;;;;8.52;6.50;;;;;;;;;;5076330;28;20041;-89
2022/05/09 22:19:13;;;;;;;8.07;7.15;;;;;;;;;;5075370;28;20066;-89
2022/05/09 22:21:40;;;;;;;9.25;6.57;;;;;;;;;;5081316;28;20684;-89
2022/05/09 22:24:07;;;;;;;8.32;6.40;;;;;;;;;;5079285;28;20101;-89
2022/05/09 22:26:35;;;;;;;9.13;5.95;;;;;;;;;;5086297;28;20074;-88
2022/05/09 22:31:47;;;;;;;9.13;6.05;;;;;;;;;;5083474;28;20146;-88
2022/05/09 22:34:14;;;;;;;8.40;6.07;;;;;;;;;;5087174;28;20117;-88
2022/05/09 22:36:41;;;;;;;9.20;6.97;;;;;;;;;;5084972;28;20402;-88
2022/05/09 22:39:08;;;;;;;10.10;6.78;;;;;;;;;;5086489;28;20121;-88
2022/05/09 22:41:38;;;;;;;9.25;7.15;;;;;;;;;;5085282;28;20047;-88
2022/05/09 22:44:06;;;;;;;9.90;7.38;;;;;;;;;;5079096;28;20072;-88
2022/05/09 22:46:33;;;;;;;10.27;8.15;;;;;;;;;;5085845;28;20477;-88
2022/05/09 22:49:00;;;;;;;8.32;6.85;;;;;;;;;;5084006;28;20087;-88
2022/05/09 22:51:27;;;;;;;12.02;7.70;;;;;;;;;;5084527;28;20352;-89
2022/05/09 22:53:53;;;;;;;9.18;7.32;;;;;;;;;;5079629;28;20094;-89
2022/05/09 22:56:20;;;;;;;9.05;6.97;;;;;;;;;;5082491;28;20052;-89
2022/05/09 22:58:49;;;;;;;9.65;6.82;;;;;;;;;;5085465;28;20067;-89
2022/05/09 23:01:24;;;;;;;9.27;7.53;;;;;;;;;;5082938;28;20056;-89
2022/05/09 23:03:51;;;;;;;9.23;7.45;;;;;;;;;;5084973;28;20787;-88
2022/05/09 23:06:17;;;;;;;9.05;7.35;;;;;;;;;;5082401;28;20048;-88
2022/05/09 23:08:45;;;;;;;9.48;6.78;;;;;;;;;;5085782;28;20048;-89
2022/05/09 23:11:11;;;;;;;9.98;7.65;;;;;;;;;;5083957;28;20044;-88
2022/05/09 23:13:38;;;;;;;9.07;6.97;;;;;;;;;;5082937;28;20048;-88
2022/05/09 23:16:06;;;;;;;11.27;6.97;;;;;;;;;;5084543;28;20132;-88
2022/05/09 23:18:34;;;;;;;7.97;6.63;;;;;;;;;;5085342;28;20131;-89
2022/05/09 23:21:00;;;;;;;10.02;6.90;;;;;;;;;;5080723;28;20056;-88
2022/05/09 23:23:28;;;;;;;8.15;6.38;;;;;;;;;;5082344;28;20059;-88
2022/05/09 23:25:56;;;;;;;9.77;7.50;;;;;;;;;;5087878;28;20420;-88
2022/05/09 23:28:23;;;;;;;10.13;7.32;;;;;;;;;;5087303;28;20109;-89
2022/05/09 23:30:52;;;;;;;9.55;7.13;;;;;;;;;;5084496;28;20113;-88
2022/05/09 23:33:21;;;;;;;11.40;7.75;;;;;;;;;;5088594;28;20044;-88
2022/05/09 23:35:50;;;;;;;9.35;6.72;;;;;;;;;;5089143;28;20048;-88
2022/05/09 23:38:17;;;;;;;7.88;6.65;;;;;;;;;;5087451;28;20104;-88
2022/05/09 23:40:44;;;;;;;9.20;6.90;;;;;;;;;;5087731;28;20048;-89
2022/05/09 23:43:10;;;;;;;10.23;7.07;;;;;;;;;;5089951;28;20044;-89
2022/05/09 23:45:37;;;;;;;8.80;7.72;;;;;;;;;;5078008;28;20136;-89
2022/05/09 23:48:04;;;;;;;8.73;6.47;;;;;;;;;;5087918;28;20645;-89
2022/05/09 23:50:34;;;;;;;8.52;6.90;;;;;;;;;;5088046;28;20051;-89
2022/05/09 23:53:02;;;;;;;7.50;6.40;;;;;;;;;;5088672;28;20091;-89
2022/05/09 23:55:28;;;;;;;11.13;7.70;;;;;;;;;;5086612;28;20047;-89
2022/05/09 23:57:55;;;;;;;9.43;6.47;;;;;;;;;;5086035;28;20045;-89
